sensor_id;sensor_type;location;lat;lon;timestamp;P1;durP1;ratioP1;P2;durP2;ratioP2
17197;SDS011;8715;51.010;6.812;2023-02-15T00:00:52;643.83;;;614.85;;
17197;SDS011;8715;51.010;6.812;2023-02-15T00:03:19;633.17;;;604.90;;
17197;SDS011;8715;51.010;6.812;2023-02-15T00:05:45;639.15;;;610.00;;
17197;SDS011;8715;51.010;6.812;2023-02-15T00:08:11;646.15;;;617.17;;
17197;SDS011;8715;51.010;6.812;2023-02-15T00:10:37;626.70;;;597.63;;
17197;SDS011;8715;51.010;6.812;2023-02-15T00:13:02;619.95;;;591.47;;
17197;SDS011;8715;51.010;6.812;2023-02-15T00:15:27;625.83;;;598.00;;
17197;SDS011;8715;51.010;6.812;2023-02-15T00:17:53;652.00;;;621.70;;
17197;SDS011;8715;51.010;6.812;2023-02-15T00:20:18;642.67;;;613.72;;
17197;SDS011;8715;51.010;6.812;2023-02-15T00:22:44;631.35;;;602.92;;
17197;SDS011;8715;51.010;6.812;2023-02-15T00:25:09;653.08;;;622.60;;
17197;SDS011;8715;51.010;6.812;2023-02-15T00:27:34;640.93;;;611.70;;
17197;SDS011;8715;51.010;6.812;2023-02-15T00:30:00;629.28;;;600.40;;
17197;SDS011;8715;51.010;6.812;2023-02-15T00:32:25;640.55;;;611.15;;
17197;SDS011;8715;51.010;6.812;2023-02-15T00:34:51;676.38;;;645.90;;
17197;SDS011;8715;51.010;6.812;2023-02-15T00:37:16;628.60;;;599.20;;
17197;SDS011;8715;51.010;6.812;2023-02-15T00:39:41;625.57;;;597.23;;
17197;SDS011;8715;51.010;6.812;2023-02-15T00:42:08;620.40;;;592.60;;
17197;SDS011;8715;51.010;6.812;2023-02-15T00:44:33;625.22;;;596.78;;
17197;SDS011;8715;51.010;6.812;2023-02-15T00:46:59;610.17;;;581.75;;
17197;SDS011;8715;51.010;6.812;2023-02-15T00:49:24;616.95;;;588.85;;
17197;SDS011;8715;51.010;6.812;2023-02-15T00:51:50;622.83;;;594.17;;
17197;SDS011;8715;51.010;6.812;2023-02-15T00:54:15;588.70;;;560.60;;
17197;SDS011;8715;51.010;6.812;2023-02-15T00:56:40;632.00;;;603.92;;
17197;SDS011;8715;51.010;6.812;2023-02-15T00:59:07;607.40;;;579.63;;
17197;SDS011;8715;51.010;6.812;2023-02-15T01:01:33;601.35;;;573.72;;
17197;SDS011;8715;51.010;6.812;2023-02-15T01:03:59;598.00;;;570.17;;
17197;SDS011;8715;51.010;6.812;2023-02-15T01:06:24;612.37;;;584.73;;
17197;SDS011;8715;51.010;6.812;2023-02-15T01:08:49;595.50;;;568.25;;
17197;SDS011;8715;51.010;6.812;2023-02-15T01:11:16;600.83;;;573.40;;
17197;SDS011;8715;51.010;6.812;2023-02-15T01:13:49;601.78;;;573.90;;
17197;SDS011;8715;51.010;6.812;2023-02-15T01:16:22;583.03;;;556.50;;
17197;SDS011;8715;51.010;6.812;2023-02-15T01:18:48;596.53;;;568.78;;
17197;SDS011;8715;51.010;6.812;2023-02-15T01:21:15;612.72;;;584.33;;
17197;SDS011;8715;51.010;6.812;2023-02-15T01:23:43;592.10;;;564.65;;
17197;SDS011;8715;51.010;6.812;2023-02-15T01:26:09;604.20;;;575.42;;
17197;SDS011;8715;51.010;6.812;2023-02-15T01:28:35;601.30;;;574.17;;
17197;SDS011;8715;51.010;6.812;2023-02-15T01:31:04;600.30;;;572.80;;
17197;SDS011;8715;51.010;6.812;2023-02-15T01:35:57;580.57;;;553.60;;
17197;SDS011;8715;51.010;6.812;2023-02-15T01:38:23;587.55;;;560.20;;
17197;SDS011;8715;51.010;6.812;2023-02-15T01:40:50;604.63;;;576.60;;
17197;SDS011;8715;51.010;6.812;2023-02-15T01:43:17;580.78;;;553.78;;
17197;SDS011;8715;51.010;6.812;2023-02-15T01:45:43;557.78;;;531.30;;
17197;SDS011;8715;51.010;6.812;2023-02-15T01:50:40;585.92;;;558.88;;
17197;SDS011;8715;51.010;6.812;2023-02-15T01:55:47;569.17;;;542.60;;
17197;SDS011;8715;51.010;6.812;2023-02-15T01:58:21;558.15;;;531.78;;
17197;SDS011;8715;51.010;6.812;2023-02-15T02:00:47;585.80;;;558.38;;
17197;SDS011;8715;51.010;6.812;2023-02-15T02:03:13;584.92;;;557.47;;
17197;SDS011;8715;51.010;6.812;2023-02-15T02:05:38;583.10;;;556.45;;
17197;SDS011;8715;51.010;6.812;2023-02-15T02:08:04;584.15;;;557.25;;
17197;SDS011;8715;51.010;6.812;2023-02-15T02:10:30;610.03;;;582.40;;
17197;SDS011;8715;51.010;6.812;2023-02-15T02:12:57;574.05;;;547.40;;
17197;SDS011;8715;51.010;6.812;2023-02-15T02:15:30;558.08;;;531.42;;
17197;SDS011;8715;51.010;6.812;2023-02-15T02:18:28;580.50;;;553.58;;
17197;SDS011;8715;51.010;6.812;2023-02-15T02:32:42;564.53;;;538.20;;
17197;SDS011;8715;51.010;6.812;2023-02-15T02:41:08;549.80;;;523.58;;
17197;SDS011;8715;51.010;6.812;2023-02-15T02:43:44;569.05;;;542.30;;
17197;SDS011;8715;51.010;6.812;2023-02-15T02:46:15;571.80;;;544.42;;
17197;SDS011;8715;51.010;6.812;2023-02-15T02:48:45;559.75;;;533.90;;
17197;SDS011;8715;51.010;6.812;2023-02-15T02:51:11;589.20;;;561.40;;
17197;SDS011;8715;51.010;6.812;2023-02-15T02:53:36;565.50;;;539.37;;
17197;SDS011;8715;51.010;6.812;2023-02-15T02:56:03;573.15;;;546.40;;
17197;SDS011;8715;51.010;6.812;2023-02-15T02:58:49;571.05;;;543.78;;
17197;SDS011;8715;51.010;6.812;2023-02-15T03:01:53;566.67;;;540.47;;
17197;SDS011;8715;51.010;6.812;2023-02-15T03:04:15;564.33;;;537.47;;
17197;SDS011;8715;51.010;6.812;2023-02-15T03:06:48;551.85;;;525.63;;
17197;SDS011;8715;51.010;6.812;2023-02-15T03:09:20;549.95;;;524.58;;
17197;SDS011;8715;51.010;6.812;2023-02-15T03:12:06;561.20;;;534.80;;
17197;SDS011;8715;51.010;6.812;2023-02-15T03:14:32;576.35;;;549.25;;
17197;SDS011;8715;51.010;6.812;2023-02-15T03:16:58;564.22;;;538.08;;
17197;SDS011;8715;51.010;6.812;2023-02-15T03:19:28;574.42;;;547.70;;
17197;SDS011;8715;51.010;6.812;2023-02-15T03:21:56;542.42;;;516.30;;
17197;SDS011;8715;51.010;6.812;2023-02-15T03:24:29;573.42;;;547.00;;
17197;SDS011;8715;51.010;6.812;2023-02-15T03:26:57;587.42;;;561.05;;
17197;SDS011;8715;51.010;6.812;2023-02-15T03:29:24;568.45;;;541.97;;
17197;SDS011;8715;51.010;6.812;2023-02-15T03:31:53;637.25;;;608.05;;
17197;SDS011;8715;51.010;6.812;2023-02-15T03:34:21;541.30;;;515.53;;
17197;SDS011;8715;51.010;6.812;2023-02-15T03:36:56;536.93;;;511.37;;
17197;SDS011;8715;51.010;6.812;2023-02-15T03:41:59;519.03;;;493.80;;
17197;SDS011;8715;51.010;6.812;2023-02-15T03:44:30;563.92;;;537.92;;
17197;SDS011;8715;51.010;6.812;2023-02-15T03:47:07;586.90;;;560.05;;
17197;SDS011;8715;51.010;6.812;2023-02-15T03:52:06;533.92;;;508.77;;
17197;SDS011;8715;51.010;6.812;2023-02-15T03:54:33;504.70;;;479.77;;
17197;SDS011;8715;51.010;6.812;2023-02-15T03:57:13;512.13;;;487.40;;
17197;SDS011;8715;51.010;6.812;2023-02-15T03:59:59;526.30;;;501.50;;
17197;SDS011;8715;51.010;6.812;2023-02-15T04:02:52;519.42;;;494.75;;
17197;SDS011;8715;51.010;6.812;2023-02-15T04:05:32;512.03;;;488.50;;
17197;SDS011;8715;51.010;6.812;2023-02-15T04:07:57;519.90;;;495.23;;
17197;SDS011;8715;51.010;6.812;2023-02-15T04:10:22;554.00;;;527.97;;
17197;SDS011;8715;51.010;6.812;2023-02-15T04:13:06;529.63;;;504.92;;
17197;SDS011;8715;51.010;6.812;2023-02-15T04:15:31;521.07;;;496.60;;
17197;SDS011;8715;51.010;6.812;2023-02-15T04:18:15;530.50;;;505.67;;
17197;SDS011;8715;51.010;6.812;2023-02-15T04:20:44;526.83;;;501.97;;
17197;SDS011;8715;51.010;6.812;2023-02-15T04:23:29;505.80;;;480.95;;
17197;SDS011;8715;51.010;6.812;2023-02-15T04:26:13;503.67;;;478.83;;
17197;SDS011;8715;51.010;6.812;2023-02-15T04:28:38;554.20;;;526.70;;
17197;SDS011;8715;51.010;6.812;2023-02-15T04:31:03;548.45;;;522.08;;
17197;SDS011;8715;51.010;6.812;2023-02-15T04:33:29;549.27;;;523.63;;
17197;SDS011;8715;51.010;6.812;2023-02-15T04:35:54;523.20;;;498.55;;
17197;SDS011;8715;51.010;6.812;2023-02-15T04:38:20;530.65;;;505.65;;
17197;SDS011;8715;51.010;6.812;2023-02-15T04:40:50;527.40;;;503.45;;
17197;SDS011;8715;51.010;6.812;2023-02-15T04:43:16;551.05;;;524.88;;
17197;SDS011;8715;51.010;6.812;2023-02-15T04:45:46;554.15;;;527.67;;
17197;SDS011;8715;51.010;6.812;2023-02-15T04:48:15;533.55;;;507.95;;
17197;SDS011;8715;51.010;6.812;2023-02-15T04:50:41;507.25;;;483.30;;
17197;SDS011;8715;51.010;6.812;2023-02-15T04:53:06;544.08;;;518.75;;
17197;SDS011;8715;51.010;6.812;2023-02-15T04:55:32;512.50;;;489.37;;
17197;SDS011;8715;51.010;6.812;2023-02-15T04:57:57;513.30;;;488.83;;
17197;SDS011;8715;51.010;6.812;2023-02-15T05:00:22;492.40;;;469.77;;
17197;SDS011;8715;51.010;6.812;2023-02-15T05:02:48;513.15;;;488.73;;
17197;SDS011;8715;51.010;6.812;2023-02-15T05:05:13;516.97;;;492.20;;
17197;SDS011;8715;51.010;6.812;2023-02-15T05:07:40;494.60;;;470.73;;
17197;SDS011;8715;51.010;6.812;2023-02-15T05:10:05;501.63;;;477.85;;
17197;SDS011;8715;51.010;6.812;2023-02-15T05:12:31;502.17;;;477.52;;
17197;SDS011;8715;51.010;6.812;2023-02-15T05:14:56;505.30;;;481.97;;
17197;SDS011;8715;51.010;6.812;2023-02-15T05:17:21;513.97;;;489.45;;
17197;SDS011;8715;51.010;6.812;2023-02-15T05:19:47;523.37;;;498.50;;
17197;SDS011;8715;51.010;6.812;2023-02-15T05:22:12;506.67;;;482.23;;
17197;SDS011;8715;51.010;6.812;2023-02-15T05:24:37;504.67;;;480.43;;
17197;SDS011;8715;51.010;6.812;2023-02-15T05:27:21;533.58;;;506.98;;
17197;SDS011;8715;51.010;6.812;2023-02-15T05:30:05;492.58;;;468.20;;
17197;SDS011;8715;51.010;6.812;2023-02-15T05:32:30;524.33;;;499.58;;
17197;SDS011;8715;51.010;6.812;2023-02-15T05:34:56;509.43;;;486.10;;
17197;SDS011;8715;51.010;6.812;2023-02-15T05:37:21;531.87;;;506.77;;
17197;SDS011;8715;51.010;6.812;2023-02-15T05:39:46;585.87;;;558.80;;
17197;SDS011;8715;51.010;6.812;2023-02-15T05:42:11;514.00;;;489.03;;
17197;SDS011;8715;51.010;6.812;2023-02-15T05:44:37;528.57;;;504.03;;
17197;SDS011;8715;51.010;6.812;2023-02-15T05:47:02;509.63;;;485.63;;
17197;SDS011;8715;51.010;6.812;2023-02-15T05:49:28;515.35;;;490.48;;
17197;SDS011;8715;51.010;6.812;2023-02-15T05:51:53;513.22;;;489.10;;
17197;SDS011;8715;51.010;6.812;2023-02-15T05:54:19;512.67;;;488.40;;
17197;SDS011;8715;51.010;6.812;2023-02-15T05:56:44;501.42;;;477.20;;
17197;SDS011;8715;51.010;6.812;2023-02-15T05:59:09;511.60;;;487.60;;
17197;SDS011;8715;51.010;6.812;2023-02-15T06:01:35;528.30;;;503.88;;
17197;SDS011;8715;51.010;6.812;2023-02-15T06:04:00;528.28;;;502.58;;
17197;SDS011;8715;51.010;6.812;2023-02-15T06:06:25;538.77;;;513.27;;
17197;SDS011;8715;51.010;6.812;2023-02-15T06:08:51;529.40;;;504.83;;
17197;SDS011;8715;51.010;6.812;2023-02-15T06:11:16;525.97;;;501.53;;
17197;SDS011;8715;51.010;6.812;2023-02-15T06:13:41;560.37;;;534.13;;
17197;SDS011;8715;51.010;6.812;2023-02-15T06:16:07;526.67;;;501.20;;
17197;SDS011;8715;51.010;6.812;2023-02-15T06:18:32;521.67;;;497.67;;
17197;SDS011;8715;51.010;6.812;2023-02-15T06:20:57;551.55;;;526.60;;
17197;SDS011;8715;51.010;6.812;2023-02-15T06:23:23;551.07;;;525.53;;
17197;SDS011;8715;51.010;6.812;2023-02-15T06:25:48;524.97;;;500.33;;
17197;SDS011;8715;51.010;6.812;2023-02-15T06:28:13;529.40;;;504.67;;
17197;SDS011;8715;51.010;6.812;2023-02-15T06:30:38;546.57;;;520.20;;
17197;SDS011;8715;51.010;6.812;2023-02-15T06:33:04;562.30;;;536.53;;
17197;SDS011;8715;51.010;6.812;2023-02-15T06:35:29;550.50;;;524.77;;
17197;SDS011;8715;51.010;6.812;2023-02-15T06:37:55;592.65;;;565.08;;
17197;SDS011;8715;51.010;6.812;2023-02-15T06:40:21;593.25;;;566.35;;
17197;SDS011;8715;51.010;6.812;2023-02-15T06:42:46;582.53;;;555.93;;
17197;SDS011;8715;51.010;6.812;2023-02-15T06:45:12;619.22;;;591.25;;
17197;SDS011;8715;51.010;6.812;2023-02-15T06:47:37;542.95;;;517.47;;
17197;SDS011;8715;51.010;6.812;2023-02-15T06:50:03;578.45;;;551.50;;
17197;SDS011;8715;51.010;6.812;2023-02-15T06:52:29;548.50;;;524.20;;
17197;SDS011;8715;51.010;6.812;2023-02-15T06:54:55;546.17;;;520.00;;
17197;SDS011;8715;51.010;6.812;2023-02-15T06:57:20;529.67;;;503.63;;
17197;SDS011;8715;51.010;6.812;2023-02-15T06:59:45;553.38;;;527.90;;
17197;SDS011;8715;51.010;6.812;2023-02-15T07:02:11;563.33;;;537.13;;
17197;SDS011;8715;51.010;6.812;2023-02-15T07:04:37;564.60;;;538.08;;
17197;SDS011;8715;51.010;6.812;2023-02-15T07:07:02;588.63;;;562.60;;
17197;SDS011;8715;51.010;6.812;2023-02-15T07:09:27;545.25;;;520.42;;
17197;SDS011;8715;51.010;6.812;2023-02-15T07:11:53;564.90;;;539.50;;
17197;SDS011;8715;51.010;6.812;2023-02-15T07:14:36;544.90;;;519.75;;
17197;SDS011;8715;51.010;6.812;2023-02-15T07:17:02;553.20;;;526.23;;
17197;SDS011;8715;51.010;6.812;2023-02-15T07:19:27;549.07;;;524.53;;
17197;SDS011;8715;51.010;6.812;2023-02-15T07:21:52;594.70;;;568.38;;
17197;SDS011;8715;51.010;6.812;2023-02-15T07:24:18;585.83;;;559.47;;
17197;SDS011;8715;51.010;6.812;2023-02-15T07:26:43;563.67;;;537.80;;
17197;SDS011;8715;51.010;6.812;2023-02-15T07:29:08;532.35;;;508.08;;
17197;SDS011;8715;51.010;6.812;2023-02-15T07:31:33;570.67;;;545.20;;
17197;SDS011;8715;51.010;6.812;2023-02-15T07:33:59;566.97;;;541.38;;
17197;SDS011;8715;51.010;6.812;2023-02-15T07:36:25;566.65;;;540.53;;
17197;SDS011;8715;51.010;6.812;2023-02-15T07:38:50;565.92;;;540.65;;
17197;SDS011;8715;51.010;6.812;2023-02-15T07:41:16;632.73;;;604.67;;
17197;SDS011;8715;51.010;6.812;2023-02-15T07:43:42;610.05;;;582.63;;
17197;SDS011;8715;51.010;6.812;2023-02-15T07:46:10;547.42;;;522.65;;
17197;SDS011;8715;51.010;6.812;2023-02-15T07:48:37;561.75;;;536.25;;
17197;SDS011;8715;51.010;6.812;2023-02-15T07:51:04;574.40;;;548.65;;
17197;SDS011;8715;51.010;6.812;2023-02-15T07:53:30;598.17;;;572.25;;
17197;SDS011;8715;51.010;6.812;2023-02-15T07:56:00;600.22;;;573.75;;
17197;SDS011;8715;51.010;6.812;2023-02-15T07:58:29;555.20;;;530.60;;
17197;SDS011;8715;51.010;6.812;2023-02-15T08:01:13;564.72;;;539.53;;
17197;SDS011;8715;51.010;6.812;2023-02-15T08:03:39;606.92;;;579.78;;
17197;SDS011;8715;51.010;6.812;2023-02-15T08:06:05;628.97;;;600.90;;
17197;SDS011;8715;51.010;6.812;2023-02-15T08:08:30;613.92;;;587.58;;
17197;SDS011;8715;51.010;6.812;2023-02-15T08:13:47;615.58;;;588.95;;
17197;SDS011;8715;51.010;6.812;2023-02-15T08:18:46;646.85;;;618.83;;
17197;SDS011;8715;51.010;6.812;2023-02-15T08:21:12;627.38;;;599.83;;
17197;SDS011;8715;51.010;6.812;2023-02-15T08:23:38;638.42;;;610.17;;
17197;SDS011;8715;51.010;6.812;2023-02-15T08:26:04;688.43;;;658.93;;
17197;SDS011;8715;51.010;6.812;2023-02-15T08:28:29;618.08;;;591.05;;
17197;SDS011;8715;51.010;6.812;2023-02-15T08:30:56;652.78;;;624.17;;
17197;SDS011;8715;51.010;6.812;2023-02-15T08:33:29;651.72;;;622.80;;
17197;SDS011;8715;51.010;6.812;2023-02-15T08:35:54;648.90;;;620.50;;
17197;SDS011;8715;51.010;6.812;2023-02-15T08:38:20;648.65;;;620.80;;
17197;SDS011;8715;51.010;6.812;2023-02-15T08:40:45;654.92;;;626.28;;
17197;SDS011;8715;51.010;6.812;2023-02-15T08:43:10;627.63;;;599.50;;
17197;SDS011;8715;51.010;6.812;2023-02-15T08:45:36;673.83;;;643.90;;
17197;SDS011;8715;51.010;6.812;2023-02-15T08:48:01;639.10;;;611.37;;
17197;SDS011;8715;51.010;6.812;2023-02-15T08:50:26;687.57;;;657.83;;
17197;SDS011;8715;51.010;6.812;2023-02-15T08:52:52;633.27;;;605.80;;
17197;SDS011;8715;51.010;6.812;2023-02-15T08:55:17;631.83;;;604.33;;
17197;SDS011;8715;51.010;6.812;2023-02-15T08:57:42;631.07;;;603.47;;
17197;SDS011;8715;51.010;6.812;2023-02-15T09:00:10;648.20;;;619.95;;
17197;SDS011;8715;51.010;6.812;2023-02-15T09:02:36;662.60;;;633.22;;
17197;SDS011;8715;51.010;6.812;2023-02-15T09:05:02;677.60;;;647.83;;
17197;SDS011;8715;51.010;6.812;2023-02-15T09:07:27;681.80;;;650.58;;
17197;SDS011;8715;51.010;6.812;2023-02-15T09:09:53;672.55;;;643.33;;
17197;SDS011;8715;51.010;6.812;2023-02-15T09:12:19;678.25;;;648.63;;
17197;SDS011;8715;51.010;6.812;2023-02-15T09:14:44;639.70;;;612.10;;
17197;SDS011;8715;51.010;6.812;2023-02-15T09:17:09;657.20;;;628.50;;
17197;SDS011;8715;51.010;6.812;2023-02-15T09:19:34;649.38;;;621.13;;
17197;SDS011;8715;51.010;6.812;2023-02-15T09:22:00;651.13;;;623.10;;
17197;SDS011;8715;51.010;6.812;2023-02-15T09:24:25;649.13;;;621.28;;
17197;SDS011;8715;51.010;6.812;2023-02-15T09:26:51;676.03;;;647.00;;
17197;SDS011;8715;51.010;6.812;2023-02-15T09:29:17;665.42;;;636.90;;
17197;SDS011;8715;51.010;6.812;2023-02-15T09:31:43;664.58;;;636.05;;
17197;SDS011;8715;51.010;6.812;2023-02-15T09:34:15;657.60;;;629.13;;
17197;SDS011;8715;51.010;6.812;2023-02-15T09:36:42;660.05;;;631.78;;
17197;SDS011;8715;51.010;6.812;2023-02-15T09:39:25;657.55;;;629.30;;
17197;SDS011;8715;51.010;6.812;2023-02-15T09:50:47;684.97;;;655.80;;
17197;SDS011;8715;51.010;6.812;2023-02-15T10:07:23;690.28;;;660.50;;
17197;SDS011;8715;51.010;6.812;2023-02-15T10:10:12;720.50;;;689.13;;
17197;SDS011;8715;51.010;6.812;2023-02-15T10:24:13;703.90;;;672.58;;
17197;SDS011;8715;51.010;6.812;2023-02-15T10:26:47;704.75;;;673.95;;
17197;SDS011;8715;51.010;6.812;2023-02-15T10:34:38;708.15;;;676.13;;
17197;SDS011;8715;51.010;6.812;2023-02-15T10:40:01;723.90;;;691.45;;
17197;SDS011;8715;51.010;6.812;2023-02-15T10:47:41;717.60;;;685.50;;
17197;SDS011;8715;51.010;6.812;2023-02-15T10:56:12;728.20;;;696.03;;
17197;SDS011;8715;51.010;6.812;2023-02-15T10:58:47;736.15;;;703.33;;
17197;SDS011;8715;51.010;6.812;2023-02-15T11:01:41;726.75;;;694.72;;
17197;SDS011;8715;51.010;6.812;2023-02-15T11:06:48;723.97;;;691.58;;
17197;SDS011;8715;51.010;6.812;2023-02-15T11:09:16;731.72;;;698.22;;
17197;SDS011;8715;51.010;6.812;2023-02-15T11:11:50;730.60;;;698.35;;
17197;SDS011;8715;51.010;6.812;2023-02-15T11:14:22;729.85;;;697.65;;
17197;SDS011;8715;51.010;6.812;2023-02-15T11:16:52;723.28;;;691.40;;
17197;SDS011;8715;51.010;6.812;2023-02-15T11:19:21;729.35;;;696.63;;
17197;SDS011;8715;51.010;6.812;2023-02-15T11:21:50;734.10;;;701.08;;
17197;SDS011;8715;51.010;6.812;2023-02-15T11:24:19;739.95;;;706.50;;
17197;SDS011;8715;51.010;6.812;2023-02-15T11:32:12;736.25;;;702.63;;
17197;SDS011;8715;51.010;6.812;2023-02-15T11:37:27;757.28;;;721.90;;
17197;SDS011;8715;51.010;6.812;2023-02-15T11:43:32;747.63;;;713.67;;
17197;SDS011;8715;51.010;6.812;2023-02-15T11:46:02;742.72;;;709.17;;
17197;SDS011;8715;51.010;6.812;2023-02-15T11:48:29;746.78;;;712.67;;
17197;SDS011;8715;51.010;6.812;2023-02-15T11:50:55;738.60;;;704.88;;
17197;SDS011;8715;51.010;6.812;2023-02-15T11:53:21;756.38;;;721.33;;
17197;SDS011;8715;51.010;6.812;2023-02-15T11:55:50;757.10;;;721.85;;
17197;SDS011;8715;51.010;6.812;2023-02-15T12:00:46;764.05;;;728.30;;
17197;SDS011;8715;51.010;6.812;2023-02-15T12:03:22;762.25;;;726.95;;
17197;SDS011;8715;51.010;6.812;2023-02-15T12:05:58;767.05;;;731.25;;
17197;SDS011;8715;51.010;6.812;2023-02-15T12:08:26;757.80;;;722.35;;
17197;SDS011;8715;51.010;6.812;2023-02-15T12:11:03;770.22;;;733.95;;
17197;SDS011;8715;51.010;6.812;2023-02-15T12:13:32;766.63;;;730.15;;
17197;SDS011;8715;51.010;6.812;2023-02-15T12:15:58;774.72;;;737.42;;
17197;SDS011;8715;51.010;6.812;2023-02-15T12:18:45;768.38;;;731.65;;
17197;SDS011;8715;51.010;6.812;2023-02-15T12:21:10;776.83;;;739.28;;
17197;SDS011;8715;51.010;6.812;2023-02-15T12:26:13;776.03;;;738.65;;
17197;SDS011;8715;51.010;6.812;2023-02-15T12:28:42;781.90;;;743.70;;
17197;SDS011;8715;51.010;6.812;2023-02-15T12:31:22;770.97;;;733.83;;
17197;SDS011;8715;51.010;6.812;2023-02-15T12:33:54;772.58;;;735.38;;
17197;SDS011;8715;51.010;6.812;2023-02-15T12:36:25;773.10;;;735.95;;
17197;SDS011;8715;51.010;6.812;2023-02-15T12:41:46;786.42;;;747.60;;
17197;SDS011;8715;51.010;6.812;2023-02-15T12:44:24;773.88;;;736.05;;
17197;SDS011;8715;51.010;6.812;2023-02-15T12:47:17;790.47;;;750.55;;
17197;SDS011;8715;51.010;6.812;2023-02-15T12:49:44;783.33;;;744.65;;
17197;SDS011;8715;51.010;6.812;2023-02-15T12:54:45;782.50;;;743.90;;
17197;SDS011;8715;51.010;6.812;2023-02-15T12:57:17;792.72;;;753.15;;
17197;SDS011;8715;51.010;6.812;2023-02-15T13:02:24;786.17;;;747.55;;
17197;SDS011;8715;51.010;6.812;2023-02-15T13:04:55;792.20;;;752.90;;
17197;SDS011;8715;51.010;6.812;2023-02-15T13:07:21;793.08;;;752.38;;
17197;SDS011;8715;51.010;6.812;2023-02-15T13:09:47;798.17;;;758.42;;
17197;SDS011;8715;51.010;6.812;2023-02-15T13:14:52;805.15;;;763.50;;
17197;SDS011;8715;51.010;6.812;2023-02-15T13:17:19;804.25;;;762.08;;
17197;SDS011;8715;51.010;6.812;2023-02-15T13:19:58;803.97;;;762.47;;
17197;SDS011;8715;51.010;6.812;2023-02-15T13:22:31;811.17;;;768.95;;
17197;SDS011;8715;51.010;6.812;2023-02-15T13:25:03;807.40;;;765.72;;
17197;SDS011;8715;51.010;6.812;2023-02-15T13:27:38;813.17;;;769.95;;
17197;SDS011;8715;51.010;6.812;2023-02-15T13:30:10;812.00;;;769.88;;
17197;SDS011;8715;51.010;6.812;2023-02-15T13:32:43;811.03;;;768.63;;
17197;SDS011;8715;51.010;6.812;2023-02-15T13:35:13;814.85;;;772.25;;
17197;SDS011;8715;51.010;6.812;2023-02-15T13:37:52;817.70;;;774.80;;
17197;SDS011;8715;51.010;6.812;2023-02-15T13:53:45;810.13;;;767.70;;
17197;SDS011;8715;51.010;6.812;2023-02-15T13:56:28;813.58;;;770.00;;
17197;SDS011;8715;51.010;6.812;2023-02-15T13:59:00;811.08;;;768.42;;
17197;SDS011;8715;51.010;6.812;2023-02-15T14:20:24;825.95;;;781.28;;
17197;SDS011;8715;51.010;6.812;2023-02-15T14:23:07;821.28;;;777.60;;
17197;SDS011;8715;51.010;6.812;2023-02-15T14:25:45;813.63;;;769.88;;
17197;SDS011;8715;51.010;6.812;2023-02-15T14:28:29;829.40;;;784.22;;
17197;SDS011;8715;51.010;6.812;2023-02-15T14:31:00;822.92;;;778.58;;
17197;SDS011;8715;51.010;6.812;2023-02-15T14:33:35;820.17;;;776.10;;
17197;SDS011;8715;51.010;6.812;2023-02-15T14:36:03;822.85;;;778.53;;
17197;SDS011;8715;51.010;6.812;2023-02-15T14:38:38;828.10;;;782.72;;
17197;SDS011;8715;51.010;6.812;2023-02-15T14:41:18;821.38;;;776.70;;
17197;SDS011;8715;51.010;6.812;2023-02-15T14:46:55;815.70;;;772.28;;
17197;SDS011;8715;51.010;6.812;2023-02-15T14:49:24;816.05;;;773.13;;
17197;SDS011;8715;51.010;6.812;2023-02-15T14:56:42;827.78;;;782.25;;
17197;SDS011;8715;51.010;6.812;2023-02-15T15:01:42;820.33;;;776.33;;
17197;SDS011;8715;51.010;6.812;2023-02-15T15:04:27;820.30;;;776.20;;
17197;SDS011;8715;51.010;6.812;2023-02-15T15:06:58;818.03;;;774.50;;
17197;SDS011;8715;51.010;6.812;2023-02-15T15:09:31;820.40;;;776.03;;
17197;SDS011;8715;51.010;6.812;2023-02-15T15:12:18;821.47;;;777.40;;
17197;SDS011;8715;51.010;6.812;2023-02-15T15:14:59;817.70;;;774.50;;
17197;SDS011;8715;51.010;6.812;2023-02-15T15:19:58;822.17;;;777.95;;
17197;SDS011;8715;51.010;6.812;2023-02-15T15:22:25;820.72;;;776.42;;
17197;SDS011;8715;51.010;6.812;2023-02-15T15:25:01;822.08;;;778.53;;
17197;SDS011;8715;51.010;6.812;2023-02-15T15:27:48;824.80;;;779.90;;
17197;SDS011;8715;51.010;6.812;2023-02-15T15:49:02;809.88;;;767.00;;
17197;SDS011;8715;51.010;6.812;2023-02-15T15:51:32;814.72;;;772.15;;
17197;SDS011;8715;51.010;6.812;2023-02-15T15:53:58;813.72;;;771.22;;
17197;SDS011;8715;51.010;6.812;2023-02-15T15:56:35;812.70;;;770.50;;
17197;SDS011;8715;51.010;6.812;2023-02-15T15:59:07;810.28;;;768.13;;
17197;SDS011;8715;51.010;6.812;2023-02-15T16:01:41;813.47;;;770.92;;
17197;SDS011;8715;51.010;6.812;2023-02-15T16:04:11;807.78;;;766.28;;
17197;SDS011;8715;51.010;6.812;2023-02-15T16:06:38;807.95;;;765.85;;
17197;SDS011;8715;51.010;6.812;2023-02-15T16:09:16;806.70;;;765.08;;
17197;SDS011;8715;51.010;6.812;2023-02-15T16:11:44;796.90;;;756.47;;
17197;SDS011;8715;51.010;6.812;2023-02-15T16:14:12;804.03;;;762.58;;
17197;SDS011;8715;51.010;6.812;2023-02-15T16:16:46;802.65;;;761.83;;
17197;SDS011;8715;51.010;6.812;2023-02-15T16:19:22;799.10;;;758.88;;
17197;SDS011;8715;51.010;6.812;2023-02-15T16:21:51;809.25;;;767.92;;
17197;SDS011;8715;51.010;6.812;2023-02-15T16:29:56;798.40;;;758.28;;
17197;SDS011;8715;51.010;6.812;2023-02-15T16:32:22;797.05;;;756.95;;
17197;SDS011;8715;51.010;6.812;2023-02-15T16:34:53;790.08;;;750.83;;
17197;SDS011;8715;51.010;6.812;2023-02-15T16:37:21;788.00;;;748.65;;
17197;SDS011;8715;51.010;6.812;2023-02-15T16:39:48;785.80;;;746.78;;
17197;SDS011;8715;51.010;6.812;2023-02-15T16:42:14;782.92;;;744.33;;
17197;SDS011;8715;51.010;6.812;2023-02-15T16:44:41;786.95;;;748.28;;
17197;SDS011;8715;51.010;6.812;2023-02-15T16:47:15;780.90;;;742.55;;
17197;SDS011;8715;51.010;6.812;2023-02-15T16:49:43;784.17;;;745.47;;
17197;SDS011;8715;51.010;6.812;2023-02-15T16:52:13;776.13;;;738.05;;
17197;SDS011;8715;51.010;6.812;2023-02-15T16:54:43;792.55;;;753.63;;
17197;SDS011;8715;51.010;6.812;2023-02-15T16:57:28;789.85;;;750.92;;
17197;SDS011;8715;51.010;6.812;2023-02-15T17:00:17;776.72;;;738.78;;
17197;SDS011;8715;51.010;6.812;2023-02-15T17:02:52;777.05;;;739.88;;
17197;SDS011;8715;51.010;6.812;2023-02-15T17:05:40;779.45;;;741.25;;
17197;SDS011;8715;51.010;6.812;2023-02-15T17:10:44;781.58;;;743.40;;
17197;SDS011;8715;51.010;6.812;2023-02-15T17:13:32;770.05;;;733.00;;
17197;SDS011;8715;51.010;6.812;2023-02-15T17:18:23;769.57;;;732.23;;
17197;SDS011;8715;51.010;6.812;2023-02-15T17:20:50;786.25;;;745.78;;
17197;SDS011;8715;51.010;6.812;2023-02-15T17:25:51;767.42;;;730.83;;
17197;SDS011;8715;51.010;6.812;2023-02-15T17:28:18;768.75;;;731.92;;
17197;SDS011;8715;51.010;6.812;2023-02-15T17:30:44;771.83;;;734.67;;
17197;SDS011;8715;51.010;6.812;2023-02-15T17:41:21;763.92;;;727.83;;
17197;SDS011;8715;51.010;6.812;2023-02-15T17:43:47;755.83;;;719.78;;
17197;SDS011;8715;51.010;6.812;2023-02-15T17:46:12;755.13;;;718.77;;